createdAt,value
2022-08-22T00:02:53.534Z,61.47
2022-08-22T00:02:56.067Z,61.88
2022-08-22T00:03:06.551Z,67.87
2022-08-22T00:03:15.813Z,67.93
2022-08-22T00:06:06.305Z,68.19
2022-08-22T00:08:57.360Z,68.16
2022-08-22T00:11:49.825Z,68.20
2022-08-22T00:14:38.870Z,68.60
2022-08-22T00:17:36.505Z,68.91
2022-08-22T00:20:17.200Z,68.86
2022-08-22T00:22:58.985Z,68.83
2022-08-22T00:25:51.069Z,69.17
2022-08-22T00:28:32.528Z,69.25
2022-08-22T00:31:19.918Z,68.83
2022-08-22T00:34:01.781Z,69.14
2022-08-22T00:36:40.931Z,69.10
2022-08-22T00:39:21.584Z,69.69
2022-08-22T00:42:32.383Z,69.37
2022-08-22T00:45:43.920Z,69.34
2022-08-22T00:48:35.974Z,69.52
2022-08-22T00:51:40.988Z,69.44
2022-08-22T00:54:32.345Z,69.94
2022-08-22T00:57:44.540Z,69.63
2022-08-22T01:00:28.282Z,70.01
2022-08-22T01:03:21.324Z,70.27
2022-08-22T01:06:11.667Z,70.57
2022-08-22T01:09:00.170Z,70.64
2022-08-22T01:12:16.846Z,70.16
2022-08-22T01:15:00.049Z,70.98
2022-08-22T01:18:03.838Z,70.95
2022-08-22T01:21:24.198Z,70.60
2022-08-22T01:25:05.971Z,70.33
2022-08-22T01:28:07.594Z,70.36
2022-08-22T01:31:29.978Z,70.37
2022-08-22T01:34:40.205Z,70.58
2022-08-22T01:37:58.666Z,70.48
2022-08-22T01:41:06.426Z,71.04
2022-08-22T01:44:10.814Z,70.81
2022-08-22T01:46:59.907Z,70.96
2022-08-22T01:49:41.274Z,70.81
2022-08-22T01:52:22.353Z,71.04
2022-08-22T01:55:02.965Z,71.00
2022-08-22T01:57:51.437Z,71.04
2022-08-22T02:00:35.064Z,70.73
2022-08-22T02:03:25.191Z,70.76
2022-08-22T02:06:08.632Z,70.91
2022-08-22T02:08:54.972Z,71.23
2022-08-22T02:11:41.823Z,71.21
2022-08-22T02:14:30.211Z,71.02
2022-08-22T02:17:15.990Z,71.31
2022-08-22T02:19:59.461Z,71.23
2022-08-22T02:22:57.061Z,71.49
2022-08-22T02:25:36.263Z,71.15
2022-08-22T02:28:13.986Z,71.33
2022-08-22T02:30:54.438Z,70.99
2022-08-22T02:33:50.001Z,71.21
2022-08-22T02:36:37.799Z,70.96
2022-08-22T02:39:26.410Z,71.20
2022-08-22T02:42:08.143Z,70.76
2022-08-22T02:44:49.654Z,70.71
2022-08-22T02:47:33.274Z,70.90
2022-08-22T02:50:13.090Z,69.96
2022-08-22T02:53:06.680Z,70.52
2022-08-22T02:55:54.090Z,70.35
2022-08-22T02:58:38.782Z,70.45
2022-08-22T03:01:36.982Z,70.27
2022-08-22T03:04:37.455Z,70.55
2022-08-22T03:07:24.537Z,70.20
2022-08-22T03:10:04.913Z,70.14
2022-08-22T03:12:56.965Z,70.13
2022-08-22T03:15:38.022Z,70.63
2022-08-22T03:18:27.127Z,69.98
2022-08-22T03:21:20.463Z,70.08
2022-08-22T03:24:02.662Z,70.37
2022-08-22T03:26:46.406Z,70.17
2022-08-22T03:29:26.191Z,70.26
2022-08-22T03:32:12.896Z,70.41
2022-08-22T03:34:59.175Z,70.33
2022-08-22T03:37:42.866Z,70.22
2022-08-22T03:40:24.908Z,69.70
2022-08-22T03:43:27.174Z,69.99
2022-08-22T03:46:42.682Z,70.08
2022-08-22T03:50:15.164Z,69.93
2022-08-22T03:53:30.181Z,69.94
2022-08-22T03:57:06.652Z,70.12
2022-08-22T04:00:19.758Z,69.82
2022-08-22T04:03:30.785Z,70.16
2022-08-22T04:06:39.191Z,70.32
2022-08-22T04:09:55.058Z,70.23
2022-08-22T04:12:59.172Z,69.97
2022-08-22T04:15:57.386Z,70.44
2022-08-22T04:19:15.467Z,70.28
2022-08-22T04:22:15.276Z,70.44
2022-08-22T04:25:02.645Z,70.06
2022-08-22T04:27:45.124Z,70.12
2022-08-22T04:30:31.585Z,69.90
2022-08-22T04:33:15.038Z,69.86
2022-08-22T04:36:02.841Z,69.57
2022-08-22T04:38:42.970Z,69.10
2022-08-22T04:41:22.210Z,69.31
2022-08-22T04:44:00.774Z,69.37
2022-08-22T04:46:47.492Z,69.03
2022-08-22T04:49:28.148Z,69.24
2022-08-22T04:52:18.531Z,68.85
2022-08-22T04:55:04.650Z,68.64
2022-08-22T04:58:00.003Z,68.64
2022-08-22T05:00:51.803Z,68.41
2022-08-22T05:03:28.917Z,68.51
2022-08-22T05:06:06.266Z,67.70
2022-08-22T05:08:46.146Z,67.38
2022-08-22T05:11:29.676Z,67.02
2022-08-22T05:14:08.454Z,67.09
2022-08-22T05:16:47.392Z,66.69
2022-08-22T05:19:31.684Z,66.16
2022-08-22T05:22:08.048Z,65.96
2022-08-22T05:24:49.096Z,66.00
2022-08-22T05:27:26.522Z,65.58
2022-08-22T05:30:03.525Z,65.07
2022-08-22T05:32:46.897Z,65.03
2022-08-22T05:35:26.981Z,64.71
2022-08-22T05:38:01.419Z,64.90
2022-08-22T05:40:40.675Z,64.50
2022-08-22T05:43:14.567Z,64.54
2022-08-22T05:45:49.459Z,64.18
2022-08-22T05:48:31.775Z,63.31
2022-08-22T05:51:16.268Z,63.09
2022-08-22T05:54:04.426Z,63.19
2022-08-22T05:56:44.018Z,62.96
2022-08-22T05:59:24.978Z,62.62
2022-08-22T06:02:07.409Z,62.34
2022-08-22T06:04:50.241Z,62.22
2022-08-22T06:07:29.504Z,61.70
2022-08-22T06:10:21.297Z,60.70
2022-08-22T06:13:11.365Z,61.18
2022-08-22T06:15:53.147Z,60.22
2022-08-22T06:18:29.443Z,60.38
2022-08-22T06:21:06.120Z,59.29
2022-08-22T06:23:45.879Z,58.93
2022-08-22T06:26:21.550Z,59.44
2022-08-22T06:29:00.957Z,58.72
2022-08-22T06:31:37.987Z,58.39
2022-08-22T06:34:15.430Z,58.38
2022-08-22T06:36:51.576Z,57.42
2022-08-22T06:39:28.280Z,56.95
2022-08-22T06:42:05.929Z,56.66
2022-08-22T06:44:45.733Z,56.16
2022-08-22T06:47:23.744Z,56.01
2022-08-22T06:50:03.179Z,55.45
2022-08-22T06:52:54.908Z,55.51
2022-08-22T06:55:31.440Z,54.45
2022-08-22T06:58:07.699Z,54.09
2022-08-22T07:00:51.106Z,53.84
2022-08-22T07:03:42.354Z,53.38
2022-08-22T07:06:18.763Z,53.19
2022-08-22T07:08:57.794Z,52.56
2022-08-22T07:11:34.328Z,52.90
2022-08-22T07:14:11.406Z,52.25
2022-08-22T07:16:50.015Z,51.58
2022-08-22T07:19:26.517Z,51.04
2022-08-22T07:22:11.246Z,50.70
2022-08-22T07:24:49.612Z,50.11
2022-08-22T07:27:32.340Z,50.51
2022-08-22T07:30:10.852Z,50.25
2022-08-22T07:32:55.485Z,48.95
2022-08-22T07:35:37.589Z,48.43
2022-08-22T07:38:27.507Z,48.31
2022-08-22T07:41:11.580Z,48.24
2022-08-22T07:43:50.531Z,47.29
2022-08-22T07:46:33.275Z,46.69
2022-08-22T07:49:16.660Z,45.79
2022-08-22T07:51:54.339Z,44.83
2022-08-22T07:54:39.332Z,44.72
2022-08-22T07:57:17.589Z,44.53
2022-08-22T07:59:55.108Z,44.05
2022-08-22T08:02:29.983Z,43.24
2022-08-22T08:05:05.643Z,41.96
2022-08-22T08:07:44.854Z,42.14
2022-08-22T08:10:24.564Z,41.81
2022-08-22T08:13:04.294Z,41.42
2022-08-22T08:15:40.244Z,40.13
2022-08-22T08:18:22.218Z,40.35
2022-08-22T08:21:02.240Z,39.10
2022-08-22T08:23:41.634Z,38.23
2022-08-22T08:26:18.649Z,38.06
2022-08-22T08:28:54.512Z,38.10
2022-08-22T08:31:32.897Z,35.43
2022-08-22T08:34:10.624Z,34.02
2022-08-22T08:36:52.712Z,31.93
2022-08-22T08:39:35.305Z,31.10
2022-08-22T08:43:03.480Z,32.00
2022-08-22T08:46:19.912Z,32.64
2022-08-22T08:49:29.676Z,33.21
2022-08-22T08:52:32.496Z,31.45
2022-08-22T08:55:22.571Z,30.41
2022-08-22T08:58:10.147Z,27.89
2022-08-22T09:00:57.591Z,26.88
2022-08-22T09:04:04.341Z,25.66
2022-08-22T09:06:59.342Z,24.91
2022-08-22T09:09:52.724Z,24.65
2022-08-22T09:13:11.794Z,23.95
2022-08-22T09:19:12.979Z,24.85
2022-08-22T09:22:14.197Z,25.29
2022-08-22T09:25:23.633Z,26.51
2022-08-22T09:28:02.715Z,27.72
2022-08-22T09:30:54.491Z,27.69
2022-08-22T09:33:39.603Z,26.18
2022-08-22T09:36:21.086Z,24.71
2022-08-22T09:38:59.909Z,24.67
2022-08-22T09:41:47.123Z,25.27
2022-08-22T09:44:39.673Z,26.45
2022-08-22T09:47:24.933Z,28.18
2022-08-22T09:50:12.638Z,29.53
2022-08-22T09:53:01.998Z,31.02
2022-08-22T09:55:45.846Z,32.59
2022-08-22T09:58:28.385Z,34.25
2022-08-22T10:01:09.682Z,34.75
2022-08-22T10:04:20.031Z,35.79
2022-08-22T10:07:00.780Z,37.67
2022-08-22T10:09:47.597Z,37.88
2022-08-22T10:12:36.215Z,39.17
2022-08-22T10:15:22.471Z,39.76
2022-08-22T10:18:12.371Z,40.61
2022-08-22T10:20:57.658Z,41.17
2022-08-22T10:23:38.712Z,41.96
2022-08-22T10:26:22.996Z,41.07
2022-08-22T10:29:28.514Z,41.96
2022-08-22T10:32:17.076Z,42.15
2022-08-22T10:34:56.699Z,41.90
2022-08-22T10:37:36.744Z,41.73
2022-08-22T10:40:17.979Z,40.90
2022-08-22T10:42:55.342Z,40.29
2022-08-22T10:45:37.297Z,39.20
2022-08-22T10:48:41.157Z,35.92
2022-08-22T10:51:24.800Z,34.23
2022-08-22T10:54:20.043Z,33.16
2022-08-22T10:57:03.802Z,31.04
2022-08-22T10:59:46.081Z,29.28
2022-08-22T11:02:45.926Z,27.24
2022-08-22T11:05:31.218Z,24.93
2022-08-22T11:08:37.187Z,23.28
2022-08-22T11:11:21.856Z,22.42
2022-08-22T11:14:16.584Z,21.67
2022-08-22T11:16:59.794Z,21.81
2022-08-22T11:19:55.780Z,22.53
2022-08-22T11:22:36.723Z,23.53
2022-08-22T11:25:35.837Z,24.40
2022-08-22T11:28:30.690Z,26.01
2022-08-22T11:31:16.448Z,26.88
2022-08-22T11:33:56.721Z,28.37
2022-08-22T11:36:38.345Z,29.03
2022-08-22T11:39:25.189Z,30.20
2022-08-22T11:42:06.985Z,31.39
2022-08-22T11:44:50.141Z,31.38
2022-08-22T11:47:28.991Z,31.40
2022-08-22T11:50:13.906Z,32.29
2022-08-22T11:53:20.098Z,32.37
2022-08-22T11:56:12.348Z,32.87
2022-08-22T11:58:56.594Z,33.03
2022-08-22T12:01:39.004Z,33.31
2022-08-22T12:04:21.622Z,33.52
2022-08-22T12:07:03.200Z,33.89
2022-08-22T12:09:50.853Z,34.22
2022-08-22T12:12:53.118Z,35.15
2022-08-22T12:15:33.861Z,35.94
2022-08-22T12:18:41.681Z,35.90
2022-08-22T12:21:38.769Z,37.04
2022-08-22T12:24:32.469Z,36.82
2022-08-22T12:27:48.292Z,37.62
2022-08-22T12:30:38.053Z,37.50
2022-08-22T12:33:37.631Z,37.67
2022-08-22T12:36:51.199Z,37.96
2022-08-22T12:39:44.302Z,38.48
2022-08-22T12:42:47.395Z,38.81
2022-08-22T12:45:47.358Z,39.13
2022-08-22T12:48:41.819Z,39.88
2022-08-22T12:51:31.610Z,40.76
2022-08-22T12:54:44.803Z,40.58
2022-08-22T12:57:28.887Z,40.75
2022-08-22T13:00:26.797Z,41.53
2022-08-22T13:03:09.685Z,42.29
2022-08-22T13:05:56.248Z,42.15
2022-08-22T13:08:37.293Z,42.03
2022-08-22T13:11:23.364Z,42.68
2022-08-22T13:14:00.596Z,43.11
2022-08-22T13:16:39.133Z,43.70
2022-08-22T13:19:24.006Z,44.52
2022-08-22T13:22:05.425Z,44.68
2022-08-22T13:24:52.529Z,44.52
2022-08-22T13:27:33.788Z,44.71
2022-08-22T13:30:18.645Z,44.43
2022-08-22T13:32:54.566Z,44.51
2022-08-22T13:35:37.286Z,44.37
2022-08-22T13:38:25.622Z,44.14
2022-08-22T13:41:03.408Z,44.39
2022-08-22T13:43:55.948Z,44.10
2022-08-22T13:46:31.529Z,43.02
2022-08-22T13:49:13.638Z,42.68
2022-08-22T13:51:58.459Z,42.29
2022-08-22T13:54:58.997Z,42.25
2022-08-22T13:57:38.125Z,42.01
2022-08-22T14:00:56.523Z,41.65
2022-08-22T14:03:41.138Z,41.54
2022-08-22T14:06:35.506Z,41.03
2022-08-22T14:09:29.462Z,41.38
2022-08-22T14:12:12.541Z,40.64
2022-08-22T14:14:52.384Z,40.50
2022-08-22T14:17:32.224Z,40.98
2022-08-22T14:20:13.215Z,40.67
2022-08-22T14:23:12.285Z,40.69
2022-08-22T14:25:49.187Z,40.40
2022-08-22T14:28:27.439Z,40.51
2022-08-22T14:31:08.214Z,40.79
2022-08-22T14:33:48.366Z,40.42
2022-08-22T14:36:27.339Z,40.28
2022-08-22T14:39:08.437Z,40.39
2022-08-22T14:41:56.602Z,40.58
2022-08-22T14:44:39.538Z,41.13
2022-08-22T14:47:32.589Z,41.41
2022-08-22T14:50:40.343Z,41.65
2022-08-22T14:53:26.631Z,42.38
2022-08-22T14:56:04.631Z,42.90
2022-08-22T14:58:51.141Z,43.07
2022-08-22T15:01:26.514Z,42.94
2022-08-22T15:04:07.382Z,43.85
2022-08-22T15:06:48.273Z,44.26
2022-08-22T15:09:36.571Z,44.43
2022-08-22T15:12:25.446Z,44.50
2022-08-22T15:15:04.719Z,44.62
2022-08-22T15:17:44.067Z,45.32
2022-08-22T15:20:35.268Z,46.03
2022-08-22T15:23:20.903Z,45.86
2022-08-22T15:26:02.066Z,46.20
2022-08-22T15:28:52.655Z,46.74
2022-08-22T15:31:28.852Z,46.60
2022-08-22T15:34:14.026Z,46.88
2022-08-22T15:37:08.471Z,47.73
2022-08-22T15:40:11.999Z,47.50
2022-08-22T15:42:48.838Z,47.40
2022-08-22T15:45:34.020Z,47.40
2022-08-22T15:48:27.429Z,47.89
2022-08-22T15:51:09.912Z,48.26
2022-08-22T15:54:16.386Z,48.32
2022-08-22T15:57:16.641Z,48.62
2022-08-22T15:59:57.820Z,48.93
2022-08-22T16:02:35.718Z,49.05
2022-08-22T16:05:29.077Z,49.23
2022-08-22T16:08:06.241Z,49.47
2022-08-22T16:10:42.874Z,49.77
2022-08-22T16:13:38.166Z,50.34
2022-08-22T16:16:35.541Z,51.21
2022-08-22T16:19:19.750Z,51.62
2022-08-22T16:22:12.382Z,51.56
2022-08-22T16:25:10.843Z,51.82
2022-08-22T16:27:58.888Z,51.97
2022-08-22T16:30:36.472Z,52.79
2022-08-22T16:33:18.294Z,52.82
2022-08-22T16:36:43.089Z,52.89
2022-08-22T16:39:38.720Z,53.16
2022-08-22T16:42:35.423Z,52.96
2022-08-22T16:45:16.788Z,53.52
2022-08-22T16:47:56.711Z,53.55
2022-08-22T16:50:37.368Z,53.78
2022-08-22T16:53:33.297Z,54.06
2022-08-22T16:56:25.131Z,54.21
2022-08-22T16:59:23.724Z,54.29
2022-08-22T17:02:16.509Z,54.33
2022-08-22T17:05:04.439Z,54.64
2022-08-22T17:07:51.926Z,54.74
2022-08-22T17:10:43.418Z,54.99
2022-08-22T17:13:27.688Z,55.44
2022-08-22T17:16:14.440Z,55.62
2022-08-22T17:19:00.665Z,55.79
2022-08-22T17:21:41.693Z,55.90
2022-08-22T17:24:35.226Z,56.11
2022-08-22T17:27:18.800Z,56.18
2022-08-22T17:30:03.151Z,56.61
2022-08-22T17:32:59.865Z,56.81
2022-08-22T17:35:45.643Z,56.86
2022-08-22T17:38:32.524Z,57.16
2022-08-22T17:41:18.751Z,57.30
2022-08-22T17:44:00.811Z,57.88
2022-08-22T17:46:46.001Z,57.50
2022-08-22T17:49:49.715Z,57.68
2022-08-22T17:52:31.319Z,58.16
2022-08-22T17:55:15.724Z,58.42
2022-08-22T17:57:53.296Z,58.75
2022-08-22T18:00:31.516Z,58.74
2022-08-22T18:03:14.484Z,58.58
2022-08-22T18:05:52.702Z,58.78
2022-08-22T18:09:13.349Z,59.00
2022-08-22T18:11:38.816Z,59.13
2022-08-22T18:14:26.043Z,59.01
2022-08-22T18:17:01.130Z,59.55
2022-08-22T18:19:52.828Z,59.37
2022-08-22T18:22:31.859Z,59.71
2022-08-22T18:25:12.381Z,59.72
2022-08-22T18:27:52.351Z,60.17
2022-08-22T18:30:30.704Z,60.06
2022-08-22T18:33:13.277Z,60.12
2022-08-22T18:35:54.732Z,60.09
2022-08-22T18:38:33.587Z,60.38
2022-08-22T18:41:14.702Z,60.50
2022-08-22T18:43:50.034Z,60.76
2022-08-22T18:46:42.688Z,60.52
2022-08-22T18:49:48.425Z,60.29
2022-08-22T18:52:35.558Z,60.85
2022-08-22T18:55:45.053Z,60.57
2022-08-22T18:58:52.535Z,60.39
2022-08-22T19:01:51.054Z,61.26
2022-08-22T19:04:46.203Z,61.28
2022-08-22T19:07:51.219Z,61.47
2022-08-22T19:10:35.615Z,61.42
2022-08-22T19:13:26.893Z,61.80
2022-08-22T19:16:15.557Z,61.79
2022-08-22T19:18:55.916Z,62.03
2022-08-22T19:21:48.688Z,61.65
2022-08-22T19:24:58.407Z,61.61
2022-08-22T19:27:34.634Z,62.14
2022-08-22T19:30:29.440Z,62.21
2022-08-22T19:33:06.901Z,61.94
2022-08-22T19:36:06.801Z,62.14
2022-08-22T19:39:00.164Z,62.23
2022-08-22T19:41:52.717Z,62.15
2022-08-22T19:44:40.092Z,62.66
2022-08-22T19:47:32.801Z,62.44
2022-08-22T19:50:14.877Z,63.01
2022-08-22T19:53:05.220Z,62.99
2022-08-22T19:56:05.847Z,62.78
2022-08-22T19:58:56.165Z,63.29
2022-08-22T20:01:56.464Z,63.38
2022-08-22T20:04:57.443Z,63.36
2022-08-22T20:07:43.792Z,63.13
2022-08-22T20:10:28.343Z,63.18
2022-08-22T20:13:07.623Z,63.49
2022-08-22T20:16:04.759Z,63.34
2022-08-22T20:19:06.683Z,63.57
2022-08-22T20:21:55.053Z,63.51
2022-08-22T20:24:39.991Z,63.79
2022-08-22T20:27:16.510Z,63.98
2022-08-22T20:29:55.891Z,64.28
2022-08-22T20:32:31.629Z,64.47
2022-08-22T20:35:07.795Z,64.55
2022-08-22T20:38:05.685Z,64.68
2022-08-22T20:40:57.027Z,64.46
2022-08-22T20:43:36.816Z,64.29
2022-08-22T20:46:27.557Z,64.55
2022-08-22T20:49:02.227Z,64.66
2022-08-22T20:51:37.273Z,65.21
2022-08-22T20:54:19.930Z,64.79
2022-08-22T20:56:55.990Z,65.03
2022-08-22T20:59:40.214Z,65.01
2022-08-22T21:02:20.362Z,65.41
2022-08-22T21:05:00.802Z,65.32
2022-08-22T21:07:40.301Z,65.35
2022-08-22T21:10:37.266Z,65.31
2022-08-22T21:13:12.998Z,65.66
2022-08-22T21:15:50.227Z,65.42
2022-08-22T21:18:33.137Z,65.85
2022-08-22T21:21:09.936Z,66.02
2022-08-22T21:23:59.934Z,65.55
2022-08-22T21:26:40.863Z,65.86
2022-08-22T21:29:23.610Z,65.73
2022-08-22T21:32:04.589Z,65.64
2022-08-22T21:34:43.457Z,65.95
2022-08-22T21:37:19.514Z,66.13
2022-08-22T21:40:01.561Z,66.08
2022-08-22T21:42:38.717Z,66.52
2022-08-22T21:45:26.451Z,66.17
2022-08-22T21:48:00.486Z,66.28
2022-08-22T21:50:38.581Z,66.55
2022-08-22T21:53:28.742Z,66.71
2022-08-22T21:56:14.831Z,66.33
2022-08-22T21:58:49.621Z,66.26
2022-08-22T22:01:31.485Z,66.87
2022-08-22T22:04:07.971Z,66.51
2022-08-22T22:06:41.861Z,66.44
2022-08-22T22:09:15.671Z,66.52
2022-08-22T22:11:53.603Z,66.66
2022-08-22T22:14:30.699Z,67.03
2022-08-22T22:17:04.370Z,67.12
2022-08-22T22:19:41.917Z,67.49
2022-08-22T22:22:15.811Z,67.37
2022-08-22T22:24:52.093Z,67.62
2022-08-22T22:27:30.880Z,67.59
2022-08-22T22:30:05.319Z,67.68
2022-08-22T22:32:43.195Z,67.97
2022-08-22T22:35:20.963Z,67.67
2022-08-22T22:37:54.614Z,68.25
2022-08-22T22:40:28.397Z,67.94
2022-08-22T22:43:04.039Z,68.27
2022-08-22T22:45:39.952Z,68.19
2022-08-22T22:48:23.826Z,68.47
2022-08-22T22:50:59.587Z,68.21
2022-08-22T22:53:40.132Z,68.34
2022-08-22T22:56:16.561Z,68.61
2022-08-22T22:58:59.289Z,68.34
2022-08-22T23:01:38.223Z,68.81
2022-08-22T23:04:16.706Z,68.71
2022-08-22T23:06:50.303Z,68.89
2022-08-22T23:09:37.994Z,68.60
2022-08-22T23:12:17.932Z,68.87
2022-08-22T23:14:57.312Z,68.62
2022-08-22T23:17:31.037Z,68.90
2022-08-22T23:20:05.836Z,68.89
2022-08-22T23:22:41.678Z,68.94
2022-08-22T23:25:15.415Z,68.94
2022-08-22T23:27:52.572Z,69.42
2022-08-22T23:30:27.724Z,69.39
2022-08-22T23:33:03.989Z,69.58
2022-08-22T23:35:37.616Z,69.55
2022-08-22T23:38:11.821Z,69.56
2022-08-22T23:40:48.229Z,69.48
2022-08-22T23:43:22.010Z,69.37
2022-08-22T23:45:57.033Z,69.66
2022-08-22T23:48:33.353Z,69.75
2022-08-22T23:51:07.853Z,69.62
2022-08-22T23:53:41.787Z,69.86
2022-08-22T23:56:19.755Z,69.94
2022-08-22T23:58:53.675Z,69.79
